Register - Login
Views: 96223791
Main - Memberlist - Active users - Calendar - Wiki - IRC Chat - Online users
Ranks - Rules/FAQ - Stats - Latest Posts - Color Chart - Smilies
12-15-18 07:59:43 PM


3648 users found.
Sort by: Total posts | EXP | User name | Registration date | Last activity | Age
Sex: Male | Female | N/A | All
Powerlevel: Banned | Normal | Moderator | Administrator | All

# Username Registered on Last active Posts Level EXP
2851 MobleSprout 08-20-09 11:56:30 PM 06-16-10 11:20:33 PM 25 12 7292
2852   Online 08-17-09 08:44:39 PM 08-17-09 08:53:33 PM 1 3 58
2853   arkaman 08-17-09 09:12:07 AM 08-17-09 09:12:07 AM 1 3 58
2854   Martboo48 08-17-09 03:34:35 AM 07-06-13 06:04:39 AM 15 10 3391
2855   SonicXSS 08-16-09 08:45:30 PM 08-16-09 08:49:14 PM 0 1 0
2856   Icemask 08-15-09 09:16:33 PM 08-30-09 02:39:12 AM 2 4 165
2857   Namco 08-15-09 04:19:42 PM 08-15-09 04:19:42 PM 0 1 0
2858   model deoxzx 08-12-09 03:51:31 PM 08-12-09 03:51:31 PM 0 1 0
2859   Bobly 08-11-09 04:09:07 PM 08-11-09 04:09:07 PM 2 4 165
2860   Bond697 08-10-09 11:31:50 AM 10-05-15 10:24:21 AM 5 6 653
2861   Gabu 08-10-09 03:51:33 AM 12-15-18 01:57:23 PM 9879 164 57378163
2862   deconruler 08-09-09 02:02:38 PM 08-09-09 02:02:38 PM 1 3 58
2863   amaury999 08-09-09 01:21:11 PM 08-09-09 01:27:37 PM 0 1 0
2864   Streetking 08-09-09 01:06:10 PM 08-15-09 04:09:05 PM 0 1 0
2865   Super_Black_Mario 08-09-09 12:50:02 AM 08-09-09 12:54:44 AM 0 1 0
2866   8 red coin 08-08-09 07:53:31 PM 08-08-09 08:01:34 PM 0 1 0
2867   Neonsin 08-07-09 09:51:00 PM 08-07-09 09:56:54 PM 0 1 0
2868   Vader2401 08-07-09 07:33:46 PM 08-08-09 11:30:36 AM 1 3 58
2869   Aamelo 08-06-09 06:53:11 PM 07-15-11 04:36:03 PM 46 16 18240
2870   XSuperGamer 08-06-09 06:39:06 PM 01-31-10 02:35:49 PM 17 10 4097
2871   sonicadventura 08-05-09 07:16:00 PM 08-05-09 07:16:00 PM 0 1 0
2872   Toast 08-05-09 02:06:21 PM 08-19-09 04:41:27 PM 0 1 0
2873 livetek 08-05-09 06:53:06 AM 08-05-09 12:51:23 PM 2 4 165
2874   RPM 08-04-09 10:34:45 PM 12-12-09 05:49:58 PM 28 13 8664
2875   davem314 08-04-09 03:38:17 AM 08-10-16 09:04:18 PM 3 5 303
2876   bigchin 08-03-09 09:57:35 PM 08-04-09 11:57:51 PM 3 5 303
2877   MysterBlock 08-03-09 07:47:03 PM 08-03-09 07:47:03 PM 1 3 58
2878   Lightspeed97 08-01-09 07:56:30 AM 04-16-13 01:45:20 PM 3 5 304
2879   supersuvo64 07-31-09 11:23:25 PM 07-31-09 11:23:25 PM 4 5 468
2880   dalc789 07-29-09 03:04:16 PM 11-15-09 01:11:29 PM 0 1 0
2881   Kironide 07-29-09 03:01:03 AM 03-21-10 10:13:27 PM 8 7 1324
2882 dirbaio 07-28-09 09:54:15 AM 06-11-12 04:26:27 PM -1288 NaN NaN
2883   Mel 07-26-09 08:05:30 PM 12-15-09 07:31:50 PM 12 9 2434
2884   Acelp21 07-25-09 03:28:54 PM 07-25-09 03:28:54 PM 1 3 58
2885   LadySTRiPES 07-23-09 10:18:57 AM 12-08-11 10:58:11 PM 148 27 105485
2886   codeman 07-21-09 08:30:11 PM 07-21-09 08:41:39 PM 1 3 58
2887 Cheatz 07-19-09 04:05:07 PM 08-18-09 03:58:30 PM 4 5 468
2888 Sephiroth 07-18-09 12:34:26 AM 05-23-11 11:23:22 PM 41 15 15392
2889   bowser97 07-14-09 10:46:21 PM 07-15-09 12:04:57 PM 2 4 165
2890   CornetTheory 07-14-09 01:47:29 PM 07-14-09 01:47:29 PM 0 1 0
2891   Hid€€€n 07-13-09 02:59:03 PM 07-13-09 02:59:03 PM 0 1 0
2892   TenPoundHammer 07-08-09 07:55:11 PM 07-08-09 07:55:11 PM 1 3 58
2893   wuffy 07-08-09 06:25:45 PM 07-08-09 07:04:00 PM 0 1 0
2894   TChaos 07-08-09 05:23:59 PM 09-25-09 04:33:01 PM 0 1 0
2895   expertmac2 07-08-09 11:06:23 AM 07-08-09 11:06:23 AM 2 4 166
2896   YoshiSonic 07-07-09 04:40:53 AM 08-24-10 04:08:26 PM 1 3 58
2897   Warz 07-06-09 01:45:18 PM 07-06-09 01:55:50 PM 1 3 58
2898   Shadow Bone 07-06-09 11:45:17 AM 10-19-10 10:48:38 PM 10 8 1857
2899   Link 70222 07-02-09 08:12:55 PM 06-04-14 06:54:23 PM 47 16 18934
2900   danielvillaf 07-02-09 02:55:04 AM 07-02-09 02:55:04 AM 4 5 470
Pages: 1 2 3 4 5 6 7 8 9 10 11 12 13 14 15 16 17 18 19 20 21 22 23 24 25 26 27 28 29 30 31 32 33 34 35 36 37 38 39 40 41 42 43 44 45 46 47 48 49 50 51 52 53 54 55 56 57 58 59 60 61 62 63 64 65 66 67 68 69 70 71 72 73



Rusted Logic

Acmlmboard - commit 6fc366a [2018-12-11]
©2000-2018 Acmlm, Xkeeper, Inuyasha, et al.

11 database queries.
Query execution time: 0.275721 seconds
Script execution time: 0.039387 seconds
Total render time: 0.315108 seconds